Watertown, NY

1:15 PM EDT on September 30, 2014 (GMT -0400)
Watertown WWTP | Change Station
CLOSE
Current Station
Personal Weather Station
Location: Watertown, NY
Elevation: 426 ft
Nearby Weather Stations

Elev 426 ft 43.99 °N, 75.93 °W | Updated 55 seconds ago

Partly Cloudy
Partly Cloudy
71.7 °F
Feels Like 75 °F
N
5.0
Wind Variable Wind from North
Gusts 14.0 mph

Today
High -- | Low -- °F
--% Chance of Precip.
Yesterday
High -- | Low -- °F
Precip. -- in
7:00 AM 6:46 PM
Waxing Crescent, 38% visible
Pressure 29.91 in
Visibility 10.0 miles
Clouds Clear
Heat Index 75 °F
Dew Point 61 °F
Humidity 68%
Rainfall 0.00 in
Snow Depth Not available.
UV 6 out of 12
Pollen 2.10 out of 12
Air Quality Not available.
Flu Activity Not available.
METAR KART 301656Z AUTO 36009KT 10SM CLR 20/13 A2991 RMK AO2 SLP127 T02000128

More Conditions Fewer Conditions

Pressure 29.91 in
Visibility 10.0 miles
Clouds Clear
Heat Index 75 °F
Dew Point 61 °F
Humidity 68%
Rainfall 0.00 in
Snow Depth Not available.
UV 6 out of 12
Pollen 2.10 out of 12
Air Quality Not available.
Flu Activity Not available.
METAR KART 301656Z AUTO 36009KT 10SM CLR 20/13 A2991 RMK AO2 SLP127 T02000128

More Conditions Fewer Conditions

10-Day Weather Forecast

Almanac

Astronomy

Sep. 30, 2014 Rise Set
Actual Time 7:00 AM EDT 6:46 PM EDT
Civil Twilight 6:31 AM EDT 7:15 PM EDT
Nautical Twilight 5:57 AM EDT 7:48 PM EDT
Astronomical Twilight 5:23 AM EDT 8:22 PM EDT
Moon 1:15 PM EDT 11:05 PM EDT
Length of Visible Light 12h 43m
Length of Day
11h 46m
Tomorrow will be 3m 1s shorter.
Waxing Crescent, 38% of the Moon is Illuminated
Today
Waxing Crescent
Oct 1
First Quarter
Oct 8
Full
Oct 15
Last Quarter
Oct 23
New

Today's Extremes

State Highs State Lows

Community

WunderPhotos

Upload Photos

1,757,688 photos uploaded!

Nearby

Air Quality

  Air Quality AQ Index Pollutant
Tuesday Moderate
PM2.5
Tuesday Good
OZONE

Snow Depth

Station Depth Elevation
No new snow has been reported.

Earthquake Activity

City Distance Mag. Time & Date
No recent earthquake activity has been reported nearby.
Minimum magnitude displayed is 2.5.

Coastal Water Temperatures

Place Temperature
Alexandria Bay, NY 64.9 °F
Ogdensburg, NY 64.0 °F

Nearby Weather Stations